Time;durP1;ratioP1;P1;durP2;ratioP2;P2;SDS_P1;SDS_P2;PMS_P1;PMS_P2;Temp;Humidity;BMP_temperature;BMP_pressure;BME280_temperature;BME280_humidity;BME280_pressure;Samples;Min_cycle;Max_cycle;Signal;HPM_P1;HPM_P2
2022/04/14 00:00:29;;;;;;;3.95;2.90;;;;;;;3.77;80.27;99956.94;4959253;28;20038;-59
2022/04/14 00:02:55;;;;;;;5.57;2.88;;;;;;;3.62;80.66;99958.50;4959558;28;20067;-59
2022/04/14 00:05:21;;;;;;;4.28;2.83;;;;;;;3.64;80.76;99958.53;4976520;28;20031;-59
2022/04/14 00:07:47;;;;;;;4.75;3.17;;;;;;;3.65;80.15;99967.06;4964786;28;20093;-59
2022/04/14 00:10:13;;;;;;;4.85;3.08;;;;;;;3.62;80.23;99968.75;4979256;28;20476;-58
2022/04/14 00:12:39;;;;;;;3.80;3.17;;;;;;;3.65;80.30;99972.16;4983852;28;20023;-59
2022/04/14 00:15:05;;;;;;;3.60;3.10;;;;;;;3.41;80.74;99960.81;4975619;28;20035;-59
2022/04/14 00:17:35;;;;;;;4.45;3.63;;;;;;;3.58;79.94;99955.91;4955473;28;20031;-58
2022/04/14 00:20:03;;;;;;;4.57;3.72;;;;;;;3.38;80.81;99938.59;4965931;28;20034;-58
2022/04/14 00:22:29;;;;;;;5.63;4.35;;;;;;;3.34;80.94;99954.75;4973395;28;20488;-58
2022/04/14 00:24:55;;;;;;;5.28;4.50;;;;;;;3.39;80.47;99959.91;4973505;28;20139;-60
2022/04/14 00:27:21;;;;;;;5.55;4.70;;;;;;;3.45;80.30;99947.22;4973573;28;20070;-59
2022/04/14 00:29:47;;;;;;;7.28;4.45;;;;;;;3.47;80.15;99953.19;4973624;28;20073;-58
2022/04/14 00:32:12;;;;;;;4.60;3.95;;;;;;;3.49;80.70;99948.94;4977268;28;20407;-59
2022/04/14 00:34:38;;;;;;;3.97;3.05;;;;;;;3.49;79.88;99959.19;4977362;28;20027;-59
2022/04/14 00:37:04;;;;;;;6.35;3.72;;;;;;;3.47;80.27;99937.00;4977141;28;20030;-58
2022/04/14 00:39:29;;;;;;;3.80;3.13;;;;;;;3.33;81.05;99954.75;4975562;28;20043;-58
2022/04/14 00:41:55;;;;;;;4.95;3.38;;;;;;;3.40;81.06;99957.38;4996036;28;20034;-59
2022/04/14 00:44:20;;;;;;;3.70;2.85;;;;;;;3.28;80.15;99950.41;4964216;28;20039;-59
2022/04/14 00:46:46;;;;;;;6.22;2.80;;;;;;;3.24;80.75;99946.09;4977107;28;20026;-58
2022/04/14 00:49:12;;;;;;;3.17;2.72;;;;;;;3.27;80.64;99941.00;4977238;28;20023;-58
2022/04/14 00:51:38;;;;;;;4.30;2.90;;;;;;;3.39;80.64;99940.31;4976507;28;20073;-58
2022/04/14 00:54:03;;;;;;;3.40;2.45;;;;;;;3.14;81.00;99940.88;4976683;28;20030;-59
2022/04/14 00:56:29;;;;;;;3.25;2.95;;;;;;;3.18;81.28;99935.78;4990373;28;20069;-58
2022/04/14 00:58:55;;;;;;;3.53;2.70;;;;;;;3.24;80.57;99946.09;4973700;28;20027;-58
2022/04/14 01:01:21;;;;;;;4.45;2.80;;;;;;;3.31;81.27;99951.28;4963604;28;20058;-58
2022/04/14 01:03:48;;;;;;;4.13;2.72;;;;;;;2.90;80.87;99904.72;4976618;28;20053;-58
2022/04/14 01:06:15;;;;;;;4.40;2.70;;;;;;;3.27;80.87;99953.81;4976478;28;20031;-58
2022/04/14 01:09:16;;;;;;;3.13;2.70;;;;;;;3.01;80.79;99906.59;4976283;28;20037;-59
2022/04/14 01:11:28;;;;;;;3.83;3.00;;;;;;;3.11;80.79;99947.63;4976053;28;20039;-59
2022/04/14 01:13:54;;;;;;;3.20;2.90;;;;;;;3.10;80.83;99956.16;4976280;28;20033;-59
2022/04/14 01:16:19;;;;;;;3.28;2.72;;;;;;;3.16;81.01;99947.69;4975939;28;20110;-59
2022/04/14 01:18:45;;;;;;;4.25;3.00;;;;;;;3.16;80.73;99957.09;4977764;28;20034;-59
2022/04/14 01:21:11;;;;;;;4.10;2.88;;;;;;;3.16;80.87;99940.03;4984083;28;20043;-59
2022/04/14 01:23:44;;;;;;;3.80;3.03;;;;;;;2.78;81.40;99903.69;4976125;28;20026;-59
2022/04/14 01:26:10;;;;;;;4.25;3.50;;;;;;;2.71;80.73;99898.50;4976173;28;20026;-59
2022/04/14 01:28:36;;;;;;;5.30;3.20;;;;;;;3.16;81.29;99970.72;4976180;28;20034;-59
2022/04/14 01:31:02;;;;;;;5.32;2.70;;;;;;;3.19;81.08;99970.78;4965952;28;20030;-59
2022/04/14 01:33:28;;;;;;;4.30;3.00;;;;;;;2.85;80.57;99914.06;4957021;28;20036;-59
2022/04/14 01:35:53;;;;;;;3.60;2.78;;;;;;;3.14;80.96;99961.34;4994202;28;20037;-58
2022/04/14 01:38:19;;;;;;;3.78;3.00;;;;;;;3.04;80.66;99955.22;4995338;28;20058;-58
2022/04/14 01:40:44;;;;;;;3.63;2.70;;;;;;;3.07;80.63;99953.56;4965065;28;20035;-58
2022/04/14 01:43:10;;;;;;;3.03;2.72;;;;;;;3.13;80.76;99955.34;4960702;28;20471;-59
2022/04/14 01:45:36;;;;;;;3.67;2.65;;;;;;;3.11;81.21;99963.00;4975703;28;20365;-59
2022/04/14 01:48:01;;;;;;;3.72;2.50;;;;;;;2.94;81.06;99961.91;4946457;28;20027;-59
2022/04/14 01:50:27;;;;;;;3.92;2.50;;;;;;;3.03;81.17;99953.50;4958249;28;20086;-59
2022/04/14 01:52:52;;;;;;;3.90;2.45;;;;;;;3.05;80.69;99967.16;4975267;28;20102;-59
2022/04/14 01:55:18;;;;;;;3.50;2.50;;;;;;;2.97;80.89;99959.41;4974621;28;20041;-59
2022/04/14 01:57:44;;;;;;;5.93;2.97;;;;;;;2.94;80.64;99962.75;4971879;28;20034;-59
2022/04/14 02:00:10;;;;;;;2.58;2.05;;;;;;;3.02;80.87;99972.25;4977043;28;20038;-59
2022/04/14 02:02:36;;;;;;;2.58;2.17;;;;;;;3.00;80.84;99966.25;4989181;28;20038;-59
2022/04/14 02:05:03;;;;;;;2.95;2.40;;;;;;;3.03;80.87;99972.25;4976745;28;20027;-58
2022/04/14 02:07:28;;;;;;;4.03;2.50;;;;;;;2.93;80.85;99972.97;4995295;28;20026;-59
2022/04/14 02:09:54;;;;;;;2.25;2.05;;;;;;;2.93;80.54;99972.97;4995020;28;20050;-59
2022/04/14 02:12:20;;;;;;;3.05;2.38;;;;;;;2.78;81.04;99965.97;4982988;28;20031;-58
2022/04/14 02:14:45;;;;;;;2.78;2.33;;;;;;;2.86;81.03;99973.72;4975263;28;20033;-58
2022/04/14 02:17:11;;;;;;;3.83;2.35;;;;;;;2.83;81.36;99973.69;4975044;28;20097;-58
2022/04/14 02:19:36;;;;;;;3.50;2.20;;;;;;;2.83;81.33;99964.31;4975447;28;20030;-58
2022/04/14 02:22:02;;;;;;;2.53;2.33;;;;;;;2.83;81.03;99971.97;4974559;28;20030;-58
2022/04/14 02:24:28;;;;;;;2.75;2.10;;;;;;;2.74;80.99;99974.41;4974835;28;20031;-58
2022/04/14 02:26:53;;;;;;;2.03;1.77;;;;;;;2.90;81.11;99975.50;4975350;28;20030;-57
2022/04/14 02:29:19;;;;;;;2.40;2.00;;;;;;;2.92;80.96;99984.91;4975313;28;20035;-56
2022/04/14 02:31:45;;;;;;;2.90;2.17;;;;;;;2.92;80.56;99989.16;4975161;28;20046;-57
2022/04/14 02:34:12;;;;;;;2.53;2.25;;;;;;;2.73;80.94;99978.66;4975119;28;20483;-57
2022/04/14 02:36:38;;;;;;;3.97;2.00;;;;;;;2.85;80.90;99987.34;4974797;28;20480;-57
2022/04/14 02:39:03;;;;;;;2.90;1.80;;;;;;;2.74;80.99;99984.66;4974934;28;20039;-59
2022/04/14 02:41:29;;;;;;;2.63;2.00;;;;;;;2.73;80.98;99994.00;4974935;28;20084;-57
2022/04/14 02:43:54;;;;;;;2.08;1.88;;;;;;;2.73;80.80;99991.44;4974776;28;20034;-58
2022/04/14 02:46:20;;;;;;;2.35;1.80;;;;;;;2.76;80.77;99996.63;4974704;28;20031;-58
2022/04/14 02:48:46;;;;;;;2.30;2.10;;;;;;;2.88;80.52;99988.25;4974744;28;20023;-57
2022/04/14 02:51:11;;;;;;;4.30;2.00;;;;;;;2.87;80.38;99994.22;4974457;28;20380;-57
2022/04/14 02:53:37;;;;;;;3.10;1.65;;;;;;;2.86;80.46;99995.03;4973427;28;20440;-59
2022/04/14 02:56:05;;;;;;;4.07;2.00;;;;;;;2.92;80.39;99992.59;4956433;28;20042;-57
2022/04/14 02:58:31;;;;;;;5.57;3.20;;;;;;;2.90;80.25;99998.50;4974762;28;20373;-57
2022/04/14 03:00:57;;;;;;;4.22;2.10;;;;;;;2.85;80.26;99993.34;4974607;28;20138;-58
2022/04/14 03:03:24;;;;;;;2.97;1.98;;;;;;;2.87;80.49;99986.53;4974524;28;20439;-58
2022/04/14 03:05:50;;;;;;;3.28;1.88;;;;;;;2.98;80.54;100001.16;4982046;28;20345;-58
2022/04/14 03:08:17;;;;;;;3.38;2.00;;;;;;;2.98;80.48;100008.84;4957916;28;20488;-58
2022/04/14 03:10:42;;;;;;;2.38;1.90;;;;;;;3.04;79.76;100008.97;4974455;28;20027;-58
2022/04/14 03:13:08;;;;;;;2.28;2.03;;;;;;;2.99;80.10;100015.69;4956732;28;20026;-58
2022/04/14 03:15:34;;;;;;;2.33;2.13;;;;;;;3.16;80.04;100021.06;4981289;28;20038;-58
2022/04/14 03:18:00;;;;;;;2.28;1.95;;;;;;;3.14;79.85;100015.06;4974286;28;20449;-58
2022/04/14 03:20:25;;;;;;;4.70;2.33;;;;;;;3.14;79.88;100023.59;4973262;28;20111;-57
2022/04/14 03:22:51;;;;;;;3.35;2.40;;;;;;;3.06;80.82;100020.06;4974255;28;20065;-58
2022/04/14 03:25:16;;;;;;;3.83;2.50;;;;;;;3.03;80.73;100025.97;4992771;28;20064;-58
2022/04/14 03:27:42;;;;;;;4.07;2.40;;;;;;;2.69;81.32;100015.22;4993716;28;20034;-57
2022/04/14 03:30:10;;;;;;;4.10;2.60;;;;;;;2.96;81.03;100011.38;4993563;28;20701;-58
2022/04/14 03:32:40;;;;;;;2.78;2.15;;;;;;;3.00;80.82;100025.09;4988190;28;20114;-58
2022/04/14 03:35:07;;;;;;;4.28;2.30;;;;;;;2.97;81.32;100031.03;4967466;28;20033;-58
2022/04/14 03:37:33;;;;;;;2.30;2.10;;;;;;;3.06;81.33;100028.59;4993558;28;20030;-58
2022/04/14 03:39:59;;;;;;;2.33;2.13;;;;;;;2.96;81.16;100026.72;4975127;28;20081;-58
2022/04/14 03:42:25;;;;;;;4.45;2.30;;;;;;;3.13;80.55;100039.78;4973957;28;20369;-58
2022/04/14 03:44:51;;;;;;;2.83;2.33;;;;;;;3.16;80.29;100024.47;4973926;28;20395;-58
2022/04/14 03:47:16;;;;;;;2.40;2.20;;;;;;;3.38;79.68;100024.78;4976292;28;20037;-58
2022/04/14 03:49:42;;;;;;;2.40;2.20;;;;;;;3.39;78.60;100023.91;4993316;28;20038;-58
2022/04/14 03:52:08;;;;;;;2.50;1.98;;;;;;;3.49;78.53;100022.34;4973938;28;20030;-58
2022/04/14 03:54:33;;;;;;;3.30;2.22;;;;;;;3.57;78.08;100021.59;4973687;28;20097;-59
2022/04/14 03:56:59;;;;;;;2.40;2.20;;;;;;;3.50;77.75;100019.81;4973361;28;20031;-59
2022/04/14 03:59:24;;;;;;;5.05;2.63;;;;;;;3.46;78.33;100018.03;4973733;28;20041;-59
2022/04/14 04:01:50;;;;;;;4.20;2.28;;;;;;;3.39;78.77;100011.13;4973361;28;20057;-59
2022/04/14 04:04:15;;;;;;;2.42;2.10;;;;;;;3.40;78.24;100021.38;4973533;28;20166;-58
2022/04/14 04:06:41;;;;;;;7.43;2.33;;;;;;;3.51;78.09;100023.25;4973351;28;20470;-58
2022/04/14 04:09:07;;;;;;;3.00;2.28;;;;;;;3.53;78.25;100019.84;4982663;28;20388;-58
2022/04/14 04:11:32;;;;;;;4.03;1.88;;;;;;;3.57;77.82;100021.59;4983844;28;20046;-60
2022/04/14 04:13:58;;;;;;;2.17;1.90;;;;;;;3.60;77.39;100026.75;4973732;28;20027;-58
2022/04/14 04:16:23;;;;;;;2.60;1.90;;;;;;;3.72;76.99;100030.31;4972857;28;20022;-58
2022/04/14 04:18:49;;;;;;;2.72;1.95;;;;;;;3.77;77.64;100033.78;4973383;28;20095;-59
2022/04/14 04:21:14;;;;;;;4.47;2.00;;;;;;;3.85;76.97;100039.00;4954751;28;20176;-58
2022/04/14 04:23:40;;;;;;;3.05;2.10;;;;;;;3.77;76.58;100026.94;4972168;28;20034;-59
2022/04/14 04:26:06;;;;;;;2.85;2.15;;;;;;;3.86;76.61;100027.91;4956021;28;20081;-59
2022/04/14 04:28:31;;;;;;;5.03;2.03;;;;;;;3.84;77.05;100021.91;4973683;28;20034;-60
2022/04/14 04:30:57;;;;;;;2.90;2.33;;;;;;;3.90;76.46;100017.72;4973351;28;20035;-59
2022/04/14 04:33:23;;;;;;;3.42;2.28;;;;;;;3.77;76.37;100010.75;4973459;28;20035;-59
2022/04/14 04:35:52;;;;;;;4.80;2.20;;;;;;;3.95;75.70;100008.38;4973038;28;20023;-59
2022/04/14 04:38:17;;;;;;;2.28;2.08;;;;;;;3.92;75.96;100013.47;4973452;28;20031;-60
2022/04/14 04:40:43;;;;;;;2.88;2.00;;;;;;;4.09;75.33;100016.22;4973498;28;20023;-58
2022/04/14 04:43:09;;;;;;;4.47;2.30;;;;;;;4.17;74.39;100012.88;4973239;28;20034;-59
2022/04/14 04:45:35;;;;;;;3.92;2.13;;;;;;;4.27;74.62;100028.34;4973395;28;20073;-59
2022/04/14 04:48:02;;;;;;;4.40;1.95;;;;;;;4.25;74.20;100008.69;4955606;28;20027;-59
2022/04/14 04:50:28;;;;;;;2.47;1.90;;;;;;;4.26;73.52;100002.69;4973189;28;20057;-59
2022/04/14 04:52:54;;;;;;;2.00;1.80;;;;;;;4.41;73.63;100017.38;4972553;28;20034;-60
2022/04/14 04:55:20;;;;;;;6.35;1.85;;;;;;;4.52;72.52;100013.19;4955841;28;20380;-59
2022/04/14 04:57:46;;;;;;;4.70;1.60;;;;;;;4.56;72.32;100006.38;4973020;28;20031;-59
2022/04/14 05:00:12;;;;;;;2.63;2.08;;;;;;;4.76;71.46;100011.66;4982410;28;20105;-57
2022/04/14 05:02:38;;;;;;;4.03;1.75;;;;;;;4.71;71.92;100009.06;4992501;28;20121;-59
2022/04/14 05:05:04;;;;;;;5.65;1.92;;;;;;;4.75;71.10;100020.22;4992187;28;20072;-59
2022/04/14 05:07:30;;;;;;;1.95;1.52;;;;;;;4.73;69.47;100024.47;4973143;28;20085;-59
2022/04/14 05:09:55;;;;;;;4.68;1.63;;;;;;;4.84;70.29;100012.59;4973033;28;20034;-59
2022/04/14 05:12:21;;;;;;;4.75;1.80;;;;;;;4.98;68.82;100013.53;4972724;28;20027;-59
2022/04/14 05:14:47;;;;;;;2.40;1.75;;;;;;;5.04;68.37;100012.72;4972738;28;20031;-60
2022/04/14 05:17:12;;;;;;;3.28;1.67;;;;;;;5.12;68.50;100007.66;4972789;28;20027;-59
2022/04/14 05:19:38;;;;;;;3.00;1.38;;;;;;;5.16;67.89;100015.38;4976439;28;20107;-59
2022/04/14 05:22:04;;;;;;;2.67;1.40;;;;;;;5.18;66.88;100015.38;4974757;28;20488;-59
2022/04/14 05:24:30;;;;;;;3.53;1.48;;;;;;;5.28;67.66;100013.72;4976595;28;20454;-59
2022/04/14 05:26:56;;;;;;;2.75;1.45;;;;;;;5.30;66.31;100012.00;4965730;28;20503;-59
2022/04/14 05:29:22;;;;;;;2.92;1.30;;;;;;;6.01;63.87;100017.47;4990982;28;20026;-60
2022/04/14 05:31:48;;;;;;;3.08;1.50;;;;;;;6.53;62.27;100012.41;4963064;28;20027;-59
2022/04/14 05:34:14;;;;;;;3.83;1.10;;;;;;;7.22;60.44;100011.44;4976128;28;20106;-58
2022/04/14 05:36:39;;;;;;;7.80;1.50;;;;;;;7.67;59.44;100006.16;4988859;28;20472;-58
2022/04/14 05:39:05;;;;;;;1.55;1.20;;;;;;;7.34;59.96;100008.00;4979418;28;20484;-59
2022/04/14 05:41:32;;;;;;;4.70;1.40;;;;;;;7.28;59.55;100015.72;4960480;28;20388;-58
2022/04/14 05:43:57;;;;;;;4.75;1.30;;;;;;;6.95;59.24;99993.50;4975860;28;20023;-59
2022/04/14 05:46:23;;;;;;;1.98;1.30;;;;;;;7.20;59.23;100008.03;4976008;28;20031;-59
2022/04/14 05:48:49;;;;;;;2.22;1.52;;;;;;;7.38;58.98;100014.88;4975952;28;20037;-59
2022/04/14 05:51:15;;;;;;;5.88;1.50;;;;;;;8.20;56.24;100014.47;4972128;28;20037;-59
2022/04/14 05:53:41;;;;;;;4.63;1.30;;;;;;;8.44;55.31;100016.06;4974209;28;20047;-59
2022/04/14 05:56:07;;;;;;;4.45;1.50;;;;;;;8.97;54.64;100010.47;4975266;28;20483;-59
2022/04/14 05:58:33;;;;;;;4.53;1.23;;;;;;;9.03;52.25;100012.97;4975480;28;20046;-58
2022/04/14 06:00:58;;;;;;;2.70;1.17;;;;;;;9.35;52.70;100016.97;4974929;28;20051;-57
2022/04/14 06:03:25;;;;;;;5.35;1.30;;;;;;;9.45;50.70;100021.16;4975066;28;20050;-58
2022/04/14 06:05:50;;;;;;;4.00;1.60;;;;;;;9.39;51.18;100028.13;4974837;28;20073;-59
2022/04/14 06:08:16;;;;;;;29.27;3.10;;;;;;;9.42;50.47;100025.50;4974801;28;20441;-58
2022/04/14 06:10:42;;;;;;;6.25;1.63;;;;;;;9.68;51.65;100030.38;4974748;28;20039;-59
2022/04/14 06:13:07;;;;;;;3.40;1.30;;;;;;;9.88;50.63;100022.34;4989130;28;20022;-58
2022/04/14 06:15:33;;;;;;;7.30;1.52;;;;;;;10.16;48.93;100028.00;4949549;28;20034;-59
2022/04/14 06:17:59;;;;;;;3.25;1.40;;;;;;;10.16;48.59;100012.47;4974640;28;20022;-58
2022/04/14 06:20:25;;;;;;;4.35;1.60;;;;;;;9.84;48.73;100028.44;4973213;28;20597;-59
2022/04/14 06:22:52;;;;;;;2.33;1.17;;;;;;;10.32;48.41;100030.38;4957454;28;20030;-58
2022/04/14 06:25:22;;;;;;;5.25;1.40;;;;;;;9.73;48.56;100022.53;4974380;28;20487;-59
2022/04/14 06:27:50;;;;;;;3.33;1.23;;;;;;;9.72;46.94;100037.22;4973857;28;20023;-59
2022/04/14 06:30:17;;;;;;;2.78;1.10;;;;;;;9.59;48.17;100026.16;4948065;28;20027;-59
2022/04/14 06:33:02;;;;;;;4.60;1.27;;;;;;;9.71;47.72;99982.94;4970809;28;20081;-59
2022/04/14 06:35:28;;;;;;;5.03;1.20;;;;;;;10.33;48.16;100032.06;4972325;28;20432;-58
2022/04/14 06:37:55;;;;;;;3.13;1.20;;;;;;;10.42;48.77;100031.09;4971270;28;20066;-59
2022/04/14 06:40:21;;;;;;;5.28;1.20;;;;;;;10.05;48.80;100034.19;4962539;28;20094;-59
2022/04/14 06:42:47;;;;;;;5.35;1.25;;;;;;;10.46;47.57;100035.38;4965290;28;20475;-59
2022/04/14 06:45:13;;;;;;;8.20;1.30;;;;;;;10.27;47.60;100024.41;4971107;28;20033;-59
2022/04/14 06:47:39;;;;;;;3.45;1.15;;;;;;;10.49;47.22;100031.00;4971874;28;20023;-59
2022/04/14 06:50:06;;;;;;;8.70;1.20;;;;;;;10.83;47.31;100034.78;4974058;28;20539;-58
2022/04/14 06:52:32;;;;;;;3.00;1.50;;;;;;;11.12;45.45;100031.69;4971567;28;20053;-60
2022/04/14 06:54:58;;;;;;;5.80;1.55;;;;;;;11.15;45.57;100041.16;4971575;28;20042;-59
2022/04/14 06:57:24;;;;;;;5.40;1.45;;;;;;;11.01;44.03;100031.03;4971813;28;20081;-59
2022/04/14 06:59:49;;;;;;;2.38;1.10;;;;;;;11.59;45.09;100029.06;4970962;28;20484;-59
2022/04/14 07:02:15;;;;;;;3.00;1.50;;;;;;;12.56;44.95;100026.97;4954510;28;20489;-59
2022/04/14 07:04:40;;;;;;;5.40;1.67;;;;;;;13.49;42.16;100019.41;4987781;28;20487;-59
2022/04/14 07:07:06;;;;;;;4.32;1.27;;;;;;;13.50;41.33;100023.72;4974178;28;20431;-59
2022/04/14 07:09:34;;;;;;;3.38;1.58;;;;;;;13.10;41.75;100028.22;4974224;28;20034;-59
2022/04/14 07:12:01;;;;;;;4.85;1.60;;;;;;;13.36;39.36;100031.91;4973900;28;20037;-59
2022/04/14 07:14:29;;;;;;;6.97;1.50;;;;;;;14.44;38.31;100035.69;4973810;28;20484;-59
2022/04/14 07:16:55;;;;;;;12.52;1.77;;;;;;;14.75;37.88;100019.06;4973440;28;20022;-59
2022/04/14 07:19:21;;;;;;;3.83;1.60;;;;;;;15.19;36.73;100020.19;4974018;28;20034;-59
2022/04/14 07:21:46;;;;;;;6.60;1.83;;;;;;;16.18;36.04;100026.16;4971623;28;20046;-60
2022/04/14 07:24:12;;;;;;;2.72;1.20;;;;;;;15.94;35.58;100022.72;4973881;28;20077;-60
2022/04/14 07:26:38;;;;;;;4.47;1.50;;;;;;;15.70;35.47;100034.03;4973448;28;20027;-59
2022/04/14 07:29:04;;;;;;;4.20;1.20;;;;;;;15.38;34.72;100026.47;4973636;28;20387;-59
2022/04/14 07:31:33;;;;;;;4.72;1.10;;;;;;;14.70;36.04;100023.59;4973617;28;20043;-60
2022/04/14 07:33:59;;;;;;;4.35;1.30;;;;;;;13.18;35.81;100021.97;4973402;28;20097;-60
2022/04/14 07:36:26;;;;;;;5.13;1.40;;;;;;;13.13;35.90;100002.13;4973338;28;20432;-59
2022/04/14 07:38:52;;;;;;;5.80;1.27;;;;;;;13.59;37.16;100007.81;4973347;28;20094;-59
2022/04/14 07:41:17;;;;;;;5.00;1.30;;;;;;;14.34;37.50;99993.44;4972488;28;20154;-59
2022/04/14 07:43:43;;;;;;;4.18;1.33;;;;;;;14.63;37.61;99997.72;4956043;28;20105;-59
2022/04/14 07:46:09;;;;;;;4.78;1.50;;;;;;;13.63;37.75;100008.59;4972611;28;20388;-59
2022/04/14 07:48:34;;;;;;;4.95;1.52;;;;;;;13.73;37.93;100001.38;4973335;28;20471;-59
2022/04/14 07:51:01;;;;;;;5.88;1.70;;;;;;;13.97;38.04;99998.03;4973064;28;20061;-61
2022/04/14 07:53:27;;;;;;;6.25;1.42;;;;;;;14.09;38.74;100003.78;4973000;28;20545;-59
2022/04/14 07:55:53;;;;;;;4.65;1.70;;;;;;;14.01;38.48;100014.44;4973434;28;20027;-60
2022/04/14 07:58:20;;;;;;;2.83;1.35;;;;;;;13.16;38.79;100005.56;4973010;28;20054;-59
2022/04/14 08:00:46;;;;;;;4.57;1.27;;;;;;;13.07;38.03;99998.84;4981497;28;20117;-60
2022/04/14 08:03:13;;;;;;;4.07;1.10;;;;;;;12.65;37.62;100010.28;4971859;28;20062;-59
2022/04/14 08:05:44;;;;;;;3.50;1.10;;;;;;;12.01;37.91;99946.00;4976706;28;20026;-58
2022/04/14 08:08:18;;;;;;;9.50;1.60;;;;;;;12.32;38.83;100004.19;4992643;28;20527;-59
2022/04/14 08:10:49;;;;;;;4.38;1.05;;;;;;;11.89;37.45;99973.06;4975133;28;20026;-59
2022/04/14 08:13:17;;;;;;;1.38;1.00;;;;;;;11.17;38.12;100016.91;4992384;28;20076;-59
2022/04/14 08:15:43;;;;;;;5.55;1.10;;;;;;;11.12;40.03;100015.28;4992263;28;20575;-58
2022/04/14 08:18:09;;;;;;;6.45;1.50;;;;;;;11.63;40.86;100017.75;5004290;28;20088;-58
2022/04/14 08:20:39;;;;;;;6.53;1.58;;;;;;;11.92;41.18;100008.50;5005214;28;20034;-59
2022/04/14 08:23:05;;;;;;;6.88;1.50;;;;;;;12.25;42.18;100000.88;4974991;28;20450;-59
2022/04/14 08:25:33;;;;;;;2.55;1.35;;;;;;;11.77;40.75;99956.91;4992412;28;20101;-59
2022/04/14 08:28:00;;;;;;;3.90;1.20;;;;;;;12.09;39.75;100016.78;4992017;28;20101;-59
2022/04/14 08:30:28;;;;;;;1.52;1.00;;;;;;;12.15;39.90;100025.34;5001768;28;20022;-59
2022/04/14 08:32:54;;;;;;;10.02;1.27;;;;;;;12.26;39.24;100015.56;4979939;28;20041;-59
2022/04/14 08:35:21;;;;;;;1.63;1.20;;;;;;;11.77;39.18;100025.22;4992496;28;20038;-59
2022/04/14 08:37:47;;;;;;;2.22;1.23;;;;;;;11.48;38.93;100005.94;4992131;28;20072;-59
2022/04/14 08:40:15;;;;;;;4.40;1.00;;;;;;;12.09;38.80;100010.75;4991990;28;20030;-60
2022/04/14 08:42:50;;;;;;;2.70;1.10;;;;;;;11.21;39.78;99955.47;4971438;28;20073;-59
2022/04/14 08:45:16;;;;;;;2.83;1.52;;;;;;;11.81;40.56;100011.31;4981283;28;20113;-59
2022/04/14 08:47:42;;;;;;;11.38;1.30;;;;;;;12.08;38.71;100015.09;4991935;28;20117;-59
2022/04/14 08:50:10;;;;;;;10.68;1.63;;;;;;;12.31;39.52;100010.25;4991800;28;20113;-58
2022/04/14 08:52:38;;;;;;;3.85;1.13;;;;;;;12.33;39.04;99995.50;4991472;28;20026;-59
2022/04/14 08:55:06;;;;;;;4.78;1.08;;;;;;;11.89;38.19;99944.53;4977916;28;20145;-59
2022/04/14 08:57:32;;;;;;;2.78;1.10;;;;;;;12.16;38.72;99994.16;4978697;28;20037;-59
2022/04/14 09:00:00;;;;;;;3.75;1.05;;;;;;;12.58;40.07;99999.22;4997714;28;20103;-59
2022/04/14 09:02:27;;;;;;;2.22;1.10;;;;;;;11.71;37.94;99953.59;4996617;28;20392;-60
2022/04/14 09:04:56;;;;;;;2.13;1.10;;;;;;;11.92;38.45;99988.56;4995861;28;20022;-58
2022/04/14 09:07:21;;;;;;;3.08;0.80;;;;;;;11.98;38.34;99953.03;4997763;28;20119;-58
2022/04/14 09:09:47;;;;;;;1.52;0.80;;;;;;;12.32;38.47;99986.84;5010008;28;20046;-58
2022/04/14 09:12:13;;;;;;;2.72;0.80;;;;;;;12.06;37.27;99982.28;4978589;28;20084;-59
2022/04/14 09:14:40;;;;;;;1.73;0.90;;;;;;;11.69;37.36;99978.69;4999000;28;20139;-58
2022/04/14 09:17:09;;;;;;;2.58;1.05;;;;;;;12.26;38.80;99982.66;5005005;28;20108;-58
2022/04/14 09:19:37;;;;;;;2.42;1.20;;;;;;;12.05;39.15;99978.81;4975854;28;20031;-58
2022/04/14 09:22:14;;;;;;;1.92;1.23;;;;;;;12.11;37.95;99983.00;4969415;28;20590;-59
2022/04/14 09:24:54;;;;;;;1.05;0.93;;;;;;;11.34;36.79;99956.97;4995673;28;20049;-59
2022/04/14 09:27:28;;;;;;;2.05;0.88;;;;;;;11.33;38.32;99977.69;4995490;28;20029;-58
2022/04/14 09:29:57;;;;;;;5.05;1.00;;;;;;;11.26;37.56;99951.06;4985946;28;20072;-58
2022/04/14 09:32:30;;;;;;;2.92;0.90;;;;;;;11.09;38.31;99995.47;5014087;28;20034;-59
2022/04/14 09:34:57;;;;;;;0.93;0.90;;;;;;;11.18;39.33;99990.09;4995486;28;20041;-58
2022/04/14 09:37:24;;;;;;;3.20;1.00;;;;;;;11.43;40.71;99975.78;4995351;28;20037;-58
2022/04/14 09:39:59;;;;;;;3.28;1.20;;;;;;;11.32;40.29;99965.66;4994920;28;20115;-58
2022/04/14 09:42:30;;;;;;;2.55;1.50;;;;;;;11.71;40.02;99991.63;4977744;28;20502;-57
2022/04/14 09:45:17;;;;;;;1.27;1.10;;;;;;;11.25;37.89;99980.47;4995576;28;20093;-58
2022/04/14 09:47:43;;;;;;;3.03;0.90;;;;;;;10.93;39.29;99987.13;4995710;28;20113;-59
2022/04/14 09:50:29;;;;;;;1.58;1.00;;;;;;;10.80;39.15;99978.72;4995385;28;20488;-59
2022/04/14 09:53:13;;;;;;;1.85;0.90;;;;;;;10.60;38.69;99927.22;4994770;28;20046;-59
2022/04/14 09:55:50;;;;;;;2.85;0.93;;;;;;;10.98;38.66;99977.50;4995517;28;20026;-59
2022/04/14 09:58:18;;;;;;;1.27;0.95;;;;;;;11.40;40.85;99979.28;4995373;28;20498;-58
2022/04/14 10:00:48;;;;;;;2.25;1.10;;;;;;;11.56;40.10;99970.31;4994743;28;20089;-57
2022/04/14 10:03:21;;;;;;;4.13;1.27;;;;;;;11.38;39.63;99924.03;4999177;28;20069;-59
2022/04/14 10:05:49;;;;;;;3.47;1.08;;;;;;;11.50;38.82;99965.28;4994645;28;20475;-57
2022/04/14 10:08:15;;;;;;;3.80;1.20;;;;;;;11.26;37.98;99964.03;4994663;28;20029;-58
2022/04/14 10:10:44;;;;;;;2.33;1.30;;;;;;;10.96;39.11;99950.78;4994944;28;20157;-59
2022/04/14 10:13:12;;;;;;;5.00;1.00;;;;;;;11.09;38.22;99954.00;4994866;28;20030;-58
2022/04/14 10:15:39;;;;;;;1.48;1.20;;;;;;;11.40;39.56;99968.91;4994537;28;20041;-59
2022/04/14 10:18:13;;;;;;;2.83;1.33;;;;;;;11.43;38.86;99971.47;5000120;28;20489;-57
2022/04/14 10:20:41;;;;;;;4.32;1.08;;;;;;;11.64;39.94;99962.38;4990744;28;20034;-58
2022/04/14 10:23:12;;;;;;;1.63;1.15;;;;;;;11.79;41.60;99966.38;4977280;28;20026;-58
2022/04/14 10:25:38;;;;;;;1.58;1.45;;;;;;;11.79;42.10;99956.00;4994492;28;20317;-58
2022/04/14 10:28:07;;;;;;;3.63;1.33;;;;;;;11.64;39.81;99962.38;4994905;28;20026;-58
2022/04/14 10:30:32;;;;;;;1.40;0.98;;;;;;;11.81;38.62;99963.75;4967355;28;20065;-58
2022/04/14 10:32:58;;;;;;;3.80;1.10;;;;;;;11.61;37.59;99956.41;4980113;28;20049;-59
2022/04/14 10:35:29;;;;;;;1.77;1.15;;;;;;;11.37;37.64;99969.84;4994414;28;20034;-57
2022/04/14 10:38:06;;;;;;;1.70;1.00;;;;;;;10.94;38.01;99902.44;4977096;28;20022;-58
2022/04/14 10:40:35;;;;;;;1.58;1.10;;;;;;;11.19;39.07;99906.25;4994459;28;20073;-58
2022/04/14 10:43:05;;;;;;;4.80;1.38;;;;;;;11.67;39.30;99938.09;4973933;28;20030;-58
2022/04/14 10:45:56;;;;;;;4.05;1.25;;;;;;;11.55;39.15;99934.88;4980809;28;20081;-59
2022/04/14 10:48:35;;;;;;;15.15;2.00;;;;;;;11.86;38.89;99936.81;4994642;28;20030;-59
2022/04/14 10:51:19;;;;;;;4.32;1.15;;;;;;;12.05;37.40;99936.41;4994391;28;20043;-58
2022/04/14 10:54:02;;;;;;;3.28;1.30;;;;;;;11.94;37.63;99941.00;4993611;28;20037;-59
2022/04/14 10:56:33;;;;;;;3.50;1.00;;;;;;;11.65;36.95;99948.50;4994430;28;20109;-59
2022/04/14 10:59:07;;;;;;;3.55;1.15;;;;;;;11.71;37.71;99951.00;4996215;28;20041;-59
2022/04/14 11:01:48;;;;;;;1.77;1.13;;;;;;;11.77;38.11;99943.94;4996035;28;20043;-58
2022/04/14 11:04:41;;;;;;;3.17;1.00;;;;;;;11.87;37.22;99922.97;4993942;28;20037;-58
2022/04/14 11:07:21;;;;;;;4.60;1.50;;;;;;;11.68;37.66;99939.81;4992565;28;20042;-58
2022/04/14 11:09:50;;;;;;;2.25;0.98;;;;;;;11.66;37.02;99934.66;4993832;28;20359;-58
2022/04/14 11:12:32;;;;;;;5.30;1.00;;;;;;;11.35;36.53;99872.22;4993972;28;20033;-58
2022/04/14 11:14:57;;;;;;;;;;;;;;;11.44;36.07;99918.69;4993317;28;20023;-58
2022/04/14 11:17:32;;;;;;;2.35;1.00;;;;;;;11.75;36.78;99920.63;5007120;28;20009;-58
2022/04/14 11:20:18;;;;;;;1.98;1.00;;;;;;;11.96;36.10;99921.91;4993083;28;20023;-58
2022/04/14 11:23:12;;;;;;;2.13;1.15;;;;;;;12.12;37.55;99913.78;4993321;28;20129;-58
2022/04/14 11:25:42;;;;;;;1.27;1.17;;;;;;;12.10;36.78;99908.63;4994456;28;20384;-58
2022/04/14 11:28:26;;;;;;;2.20;1.05;;;;;;;11.66;36.07;99902.69;4977770;28;20085;-58
2022/04/14 11:30:56;;;;;;;1.73;1.20;;;;;;;11.77;36.86;99885.13;4995351;28;20033;-58
2022/04/14 11:33:22;;;;;;;1.42;0.90;;;;;;;11.46;35.58;99859.88;4993341;28;20495;-58
2022/04/14 11:35:48;;;;;;;1.95;0.80;;;;;;;11.97;35.87;99902.88;4996466;28;20487;-58